• Join FlightAware (Why Join?)
  • Login
  • US Flag 
12:11PM EDT


 

Airport Tracker/Info


-or-


 

Live Flight TrackerFlight Track Log ✈ UAL1433 ✈ 25-Aug-2013 ✈ MNMG / MGA - KIAH

Flight Track Log - Related Links

Times and Time Zones

All times are in EDT time to prevent confusion due to time zone crossing. See the UAL1433 flight status page for this flight to view local times or setup timezone preferences in your user account.

Time Position Orientation Groundspeed Altitude Reporting Facility
EDT Latitude Longitude Course Direction KTS MPH feet Rate Location/Type
02:34PM 12.6652 -86.4351 334° Northwest  Level FlightAware Approximate
02:35PM 12.7699 -86.4886 334° Northwest  Level FlightAware Approximate
02:36PM 12.8747 -86.5422 333° Northwest  Level FlightAware Approximate
02:37PM 12.9794 -86.5958 333° Northwest  Level FlightAware Approximate
02:38PM 13.0840 -86.6494 333° Northwest  Level FlightAware Approximate
02:39PM 13.1887 -86.7031 333° Northwest  Level FlightAware Approximate
02:40PM 13.2934 -86.7569 333° Northwest  Level FlightAware Approximate
02:41PM 13.3980 -86.8106 333° Northwest  Level FlightAware Approximate
02:42PM 13.5027 -86.8645 333° Northwest  Level FlightAware Approximate
02:43PM 13.6073 -86.9184 333° Northwest  Level FlightAware Approximate
02:44PM 13.7119 -86.9723 333° Northwest  Level FlightAware Approximate
02:45PM 13.8158 -87.0268 333° Northwest  Level FlightAware Approximate
02:46PM 13.9199 -87.0819 333° Northwest  Level FlightAware Approximate
02:47PM 14.0240 -87.1369 333° Northwest  Level FlightAware Approximate
02:48PM 14.1280 -87.1920 333° Northwest  Level FlightAware Approximate
02:49PM 14.2321 -87.2472 333° Northwest  Level FlightAware Approximate
02:50PM 14.3362 -87.3024 333° Northwest  Level FlightAware Approximate
02:50PM 13.9460 -87.3360 333° Northwest 444 511 33,100  Level FlightAware
02:51PM 14.4402 -87.3577 333° Northwest  Level FlightAware Approximate
02:51PM 14.0030 -87.3570 340° North 445 512 33,500  Level FlightAware
02:51PM 14.0640 -87.3790 341° North 446 513 33,900 420 Climbing FlightAware
02:52PM 14.1350 -87.4060 340° North 447 514 34,000 60 Climbing FlightAware
02:53PM 14.2030 -87.4320 340° North 445 512 34,000  Level FlightAware
02:53PM 14.2730 -87.4580 340° North 444 511 34,000  Level FlightAware
02:54PM 14.3400 -87.4830 340° North 445 512 34,000  Level FlightAware
02:54PM 14.4210 -87.5130 340° North 443 510 34,000  Level FlightAware
02:55PM 14.4840 -87.5380 339° North 442 509 34,000  Level FlightAware
02:56PM 14.5430 -87.5610 339° North 442 509 34,000  Level FlightAware
02:56PM 14.6010 -87.5840 339° North 442 509 34,000  Level FlightAware
02:57PM 14.6630 -87.6090 339° North 442 509 34,000  Level FlightAware
02:58PM 14.7230 -87.6330 339° North 442 509 34,000  Level FlightAware
02:58PM 14.7810 -87.6560 339° North 442 509 34,000  Level FlightAware
02:59PM 14.8400 -87.6790 339° North 442 509 34,000  Level FlightAware
02:59PM 14.9000 -87.7030 339° North 442 509 34,000  Level FlightAware
03:00PM 14.9600 -87.7270 339° North 442 509 34,000  Level FlightAware
03:03PM 15.2186 -87.7952 346° North  Level FlightAware Approximate
03:04PM 15.3176 -87.8406 330° Northwest  Level Estimated
03:05PM 15.4147 -87.8901 334° Northwest  Level FlightAware Approximate
03:06PM 15.5177 -87.9439 333° Northwest  Level FlightAware Approximate
03:07PM 15.6140 -87.9953 333° Northwest  Level FlightAware Approximate
03:08PM 15.7102 -88.0467 333° Northwest  Level FlightAware Approximate
03:09PM 15.8064 -88.0981 333° Northwest  Level FlightAware Approximate
03:10PM 15.9026 -88.1497 333° Northwest  Level FlightAware Approximate
03:11PM 15.9987 -88.2012 333° Northwest  Level FlightAware Approximate
03:12PM 16.0949 -88.2528 333° Northwest  Level FlightAware Approximate
03:13PM 16.1910 -88.3045 333° Northwest  Level FlightAware Approximate
03:14PM 16.2872 -88.3561 333° Northwest  Level FlightAware Approximate
03:15PM 16.3833 -88.4079 333° Northwest  Level FlightAware Approximate
03:16PM 16.4794 -88.4597 333° Northwest  Level FlightAware Approximate
03:17PM 16.5755 -88.5116 333° Northwest  Level FlightAware Approximate
03:18PM 16.6716 -88.5635 333° Northwest  Level FlightAware Approximate
03:19PM 16.7677 -88.6154 333° Northwest  Level FlightAware Approximate
03:20PM 16.8638 -88.6675 333° Northwest  Level FlightAware Approximate
03:21PM 16.9598 -88.7195 333° Northwest  Level FlightAware Approximate
03:22PM 17.0558 -88.7717 333° Northwest  Level FlightAware Approximate
03:23PM 17.1519 -88.8238 333° Northwest  Level FlightAware Approximate
03:24PM 17.2477 -88.8764 332° Northwest  Level FlightAware Approximate
03:25PM 17.3433 -88.9294 332° Northwest  Level FlightAware Approximate
03:26PM 17.4390 -88.9825 332° Northwest  Level FlightAware Approximate
03:27PM 17.5346 -89.0356 332° Northwest  Level FlightAware Approximate
03:27PM 18.0280 -89.2070 332° Northwest 453 521 34,000  Level FlightAware
03:27PM 18.0870 -89.2490 326° Northwest 453 521 34,000  Level FlightAware
03:28PM 18.1480 -89.2920 326° Northwest 454 522 34,000  Level FlightAware
03:28PM 18.1960 -89.3260 326° Northwest 454 522 34,000  Level FlightAware
03:29PM 18.2680 -89.3790 325° Northwest 454 522 34,000  Level FlightAware
03:30PM 18.3560 -89.4410 326° Northwest 452 520 34,000  Level FlightAware
03:30PM 18.3990 -89.4710 326° Northwest 454 522 34,000  Level FlightAware
03:31PM 18.4770 -89.5270 326° Northwest 453 521 34,000  Level FlightAware
03:31PM 18.5390 -89.5710 326° Northwest 452 520 34,000  Level FlightAware
03:32PM 18.6030 -89.6170 326° Northwest 451 519 34,000  Level FlightAware
03:33PM 18.6590 -89.6560 327° Northwest 450 518 34,000  Level FlightAware
03:33PM 18.7200 -89.7010 325° Northwest 449 517 34,000  Level FlightAware
03:34PM 18.7710 -89.7370 326° Northwest 449 517 34,000  Level FlightAware
03:34PM 18.8360 -89.7840 326° Northwest 448 516 34,000  Level FlightAware
03:35PM 18.8900 -89.8220 326° Northwest 448 516 34,000  Level FlightAware
03:35PM 18.9590 -89.8720 326° Northwest 450 518 34,000  Level FlightAware
03:36PM 19.0250 -89.9190 326° Northwest 449 517 34,000  Level FlightAware
03:37PM 19.0790 -89.9590 325° Northwest 451 519 34,000  Level FlightAware
03:37PM 19.1420 -90.0040 326° Northwest 452 520 34,000  Level FlightAware
03:38PM 19.1870 -90.0370 325° Northwest 452 520 34,000  Level FlightAware
03:38PM 19.2670 -90.0940 326° Northwest 453 521 34,000  Level FlightAware
03:39PM 19.3250 -90.1360 326° Northwest 453 521 34,000  Level FlightAware
03:40PM 19.3870 -90.1810 326° Northwest 455 524 34,000  Level FlightAware
03:40PM 19.4430 -90.2220 325° Northwest 455 524 34,000  Level FlightAware
03:41PM 19.5110 -90.2710 326° Northwest 456 525 34,000  Level FlightAware
03:41PM 19.5670 -90.3120 325° Northwest 456 525 34,000  Level FlightAware
03:42PM 19.6270 -90.3550 326° Northwest 456 525 34,000  Level FlightAware
03:42PM 19.6890 -90.4010 325° Northwest 456 525 34,000  Level FlightAware
03:43PM 19.7490 -90.4440 326° Northwest 456 525 34,000  Level FlightAware
03:44PM 19.8020 -90.4830 325° Northwest 455 524 34,000  Level FlightAware
03:44PM 19.8720 -90.5210 333° Northwest 454 522 34,000  Level FlightAware
03:45PM 19.9470 -90.5530 338° Northwest 455 524 34,000  Level FlightAware
03:45PM 20.0090 -90.5790 338° Northwest 454 522 34,000  Level FlightAware
03:46PM 20.0860 -90.6110 339° North 454 522 34,000  Level FlightAware
03:47PM 20.1540 -90.6400 338° Northwest 454 522 34,000  Level FlightAware
03:47PM 20.2130 -90.6640 339° North 453 521 34,000  Level FlightAware
03:48PM 20.2870 -90.6960 338° Northwest 452 520 34,000  Level FlightAware
03:48PM 20.3560 -90.7250 338° Northwest 452 520 34,000  Level FlightAware
03:49PM 20.4270 -90.7550 338° Northwest 452 520 34,000  Level FlightAware
03:50PM 20.4970 -90.7850 338° Northwest 453 521 34,000  Level FlightAware
03:50PM 20.5600 -90.8120 338° Northwest 453 521 34,000  Level FlightAware
03:51PM 20.6320 -90.8420 339° North 454 522 34,000  Level FlightAware
03:51PM 20.6970 -90.8700 338° Northwest 454 522 34,000  Level FlightAware
03:52PM 20.7680 -90.9000 338° Northwest 454 522 34,000  Level FlightAware
03:52PM 20.8390 -90.9300 338° Northwest 454 522 34,000  Level FlightAware
03:53PM 20.9000 -90.9560 338° Northwest 454 522 34,000  Level FlightAware
03:54PM 20.9710 -90.9860 338° Northwest 453 521 34,000  Level FlightAware
03:54PM 21.0450 -91.0180 338° Northwest 452 520 34,000  Level FlightAware
03:55PM 21.1070 -91.0450 338° Northwest 450 518 34,000  Level FlightAware
03:55PM 21.1720 -91.0720 339° North 450 518 34,000  Level FlightAware
03:56PM 21.2420 -91.1020 338° Northwest 449 517 34,000  Level FlightAware
03:56PM 21.3040 -91.1290 338° Northwest 448 516 34,000  Level FlightAware
03:57PM 21.3780 -91.1610 338° Northwest 448 516 34,000  Level FlightAware
03:58PM 21.4480 -91.1900 339° North 449 517 34,000  Level FlightAware
03:58PM 21.5120 -91.2180 338° Northwest 450 518 34,000  Level FlightAware
03:59PM 21.5830 -91.2490 338° Northwest 452 520 34,000  Level FlightAware
03:59PM 21.6170 -91.2630 339° North 453 521 34,000  Level FlightAware
04:00PM 21.7660 -91.3280 338° Northwest 454 522 34,000  Level FlightAware
04:01PM 21.8120 -91.3480 338° Northwest 456 525 34,000  Level FlightAware
04:02PM 21.8820 -91.3780 338° Northwest 458 527 34,000  Level FlightAware
04:02PM 21.9350 -91.4010 338° Northwest 458 527 34,000  Level FlightAware
04:03PM 22.0150 -91.4350 338° Northwest 459 528 34,000  Level FlightAware
04:03PM 22.0730 -91.4600 338° Northwest 460 529 34,000  Level FlightAware
04:04PM 22.1350 -91.4890 337° Northwest 460 529 34,000  Level FlightAware
04:05PM 22.1960 -91.5170 337° Northwest 460 529 34,000  Level FlightAware
04:05PM 22.2940 -91.5570 339° North 460 529 34,000  Level FlightAware
04:06PM 22.3720 -91.5900 339° North 459 528 34,000  Level FlightAware
04:06PM 22.4170 -91.6100 338° Northwest 457 526 34,000  Level FlightAware
04:07PM 22.4830 -91.6400 337° Northwest 457 526 34,000  Level FlightAware
04:08PM 22.5720 -91.6770 339° North 454 522 34,000  Level FlightAware
04:08PM 22.6360 -91.7070 337° Northwest 454 522 34,000  Level FlightAware
04:09PM 22.6970 -91.7350 337° Northwest 454 522 34,000  Level FlightAware
04:09PM 22.7570 -91.7630 337° Northwest 454 522 34,000  Level FlightAware
04:12PM 22.9648 -91.8474 340° North  Level FlightAware Approximate
04:13PM 23.0661 -91.8886 339° North  Level FlightAware Approximate
04:14PM 23.1674 -91.9299 339° North  Level FlightAware Approximate
04:15PM 23.2682 -91.9732 338° Northwest  Level FlightAware Approximate
04:16PM 23.3682 -92.0182 338° Northwest  Level FlightAware Approximate
04:17PM 23.4681 -92.0633 338° Northwest  Level FlightAware Approximate
04:18PM 23.5681 -92.1085 337° Northwest  Level FlightAware Approximate
04:19PM 23.6680 -92.1537 337° Northwest  Level FlightAware Approximate
04:20PM 23.7680 -92.1991 337° Northwest  Level FlightAware Approximate
04:21PM 23.8679 -92.2444 337° Northwest  Level FlightAware Approximate
04:22PM 23.9678 -92.2899 337° Northwest  Level FlightAware Approximate
04:23PM 24.0677 -92.3354 337° Northwest  Level FlightAware Approximate
04:24PM 24.1676 -92.3810 337° Northwest  Level FlightAware Approximate
04:25PM 24.2674 -92.4267 337° Northwest  Level FlightAware Approximate
04:26PM 24.3673 -92.4724 337° Northwest  Level FlightAware Approximate
04:27PM 24.4671 -92.5182 337° Northwest  Level FlightAware Approximate
04:28PM 24.5639 -92.5711 332° Northwest  Level FlightAware Approximate
04:29PM 24.6591 -92.6276 332° Northwest  Level FlightAware Approximate
04:30PM 24.7544 -92.6841 332° Northwest  Level FlightAware Approximate
04:31PM 24.8496 -92.7407 332° Northwest  Level FlightAware Approximate
04:32PM 24.9490 -92.8000 332° Northwest  Level FlightAware Approximate
04:33PM 25.0485 -92.8594 332° Northwest  Level FlightAware Approximate
04:34PM 25.1479 -92.9188 332° Northwest  Level FlightAware Approximate
04:35PM 25.2481 -92.9767 333° Northwest  Level FlightAware Approximate
04:36PM 25.3491 -93.0329 333° Northwest  Level FlightAware Approximate
04:37PM 25.4482 -93.0932 331° Northwest  Level FlightAware Approximate
04:38PM 25.5471 -93.1538 331° Northwest  Level FlightAware Approximate
04:39PM 25.6461 -93.2144 331° Northwest  Level FlightAware Approximate
04:40PM 25.7450 -93.2752 331° Northwest  Level FlightAware Approximate
04:40PM 26.3055 -93.6231 332° Northwest 470 541 34,000  Level FlightAware ADS-B
04:41PM 25.8439 -93.3360 331° Northwest  Level FlightAware Approximate
04:42PM 25.9433 -93.3959 332° Northwest  Level FlightAware Approximate
04:42PM 26.5003 -93.7521 329° Northwest 473 544 34,000  Level FlightAware ADS-B
04:45PM 26.7699 -93.8109 348° North  Level FlightAware Approximate
04:45PM 26.8578 -94.0213 348° North 462 532 34,000  Level FlightAware ADS-B
04:45PM 26.8638 -94.0238 340° North 457 526 34,000  Level FlightAware ADS-B
04:46PM 26.8835 -94.0297 345° North 457 526 34,000  Level FlightAware ADS-B
04:46PM 26.9146 -94.0332 354° North 456 525 34,000  Level FlightAware ADS-B
04:46PM 26.9211 -94.0331 North 456 525 34,000  Level FlightAware ADS-B
04:47PM 27.0165 -94.0272 North 458 527 34,000  Level FlightAware ADS-B
04:47PM 27.0814 -94.0235 North 459 528 34,000  Level FlightAware ADS-B
04:48PM 27.1798 -94.0182 North 461 531 34,000  Level FlightAware ADS-B
04:49PM 27.2599 -94.0142 North 466 536 34,000  Level FlightAware ADS-B
04:49PM 27.3265 -94.0107 North 468 539 34,000  Level FlightAware ADS-B
04:50PM 27.4050 -94.0066 North 469 540 34,000  Level FlightAware ADS-B
04:50PM 27.4768 -94.0028 North 471 542 34,000  Level FlightAware ADS-B
04:51PM 27.5432 -93.9993 North 471 542 34,000  Level FlightAware ADS-B
04:51PM 27.6085 -93.9959 North 471 542 34,000  Level FlightAware ADS-B
04:52PM 27.6956 -93.9914 North 471 542 34,000  Level FlightAware ADS-B
04:52PM 27.7625 -93.9878 North 471 542 34,000  Level FlightAware ADS-B
04:53PM 27.8292 -93.9843 North 471 542 34,000  Level FlightAware ADS-B
04:53PM 27.8960 -93.9808 North 472 543 34,000  Level FlightAware ADS-B
04:54PM 27.9968 -93.9754 North 472 543 34,000  Level FlightAware ADS-B
04:55PM 28.0630 -93.9718 North 472 543 34,000  Level FlightAware ADS-B
04:55PM 28.1331 -93.9680 North 470 541 34,000  Level FlightAware ADS-B
04:56PM 28.2035 -93.9642 North 470 541 34,000  Level FlightAware ADS-B
04:56PM 28.2695 -93.9607 North 470 541 34,000  Level FlightAware ADS-B
04:57PM 28.3396 -93.9569 North 469 540 34,000  Level FlightAware ADS-B
04:57PM 28.4065 -93.9533 North 469 540 34,000 -480 Level FlightAware ADS-B
04:58PM 28.4747 -93.9498 North 467 537 33,500 -960 Descending FlightAware ADS-B
04:58PM 28.5435 -93.9461 North 469 540 33,000 -960 Descending FlightAware ADS-B
04:59PM 28.6192 -93.9421 North 471 542 32,500 -960 Descending FlightAware ADS-B
04:59PM 28.6865 -93.9385 North 471 542 32,000 -1,680 Descending FlightAware ADS-B
05:03PM 29.1850 -93.9112 North 451 519 25,200 -1,860 Descending FlightAware ADS-B
05:04PM 29.2473 -93.9079 North 446 513 24,000 -2,280 Descending FlightAware ADS-B
05:04PM 29.3092 -93.9044 North 436 502 22,900 -2,280 Descending FlightAware ADS-B
05:05PM 29.3693 -93.9009 North 423 487 21,700 -2,280 Descending FlightAware ADS-B
05:05PM 29.4251 -93.8983 North 412 474 20,700 -2,160 Descending FlightAware ADS-B
05:05PM 29.4346 -93.8992 355° North 413 475 20,500 -2,400 Descending FlightAware ADS-B
05:06PM 29.4527 -93.9041 347° North 415 478 20,100 -2,160 Descending FlightAware ADS-B
05:06PM 29.4665 -93.9107 337° Northwest 418 481 19,900 -2,040 Descending FlightAware ADS-B
05:06PM 29.4830 -93.9225 328° Northwest 419 482 19,500 -2,220 Descending FlightAware ADS-B
05:06PM 29.4955 -93.9358 317° Northwest 421 484 19,200 -2,040 Descending FlightAware ADS-B
05:06PM 29.5031 -93.9463 310° West 422 486 19,000 -2,040 Descending FlightAware ADS-B
05:06PM 29.5087 -93.9561 303° West 422 486 18,800 -2,520 Descending FlightAware ADS-B
05:06PM 29.5150 -93.9709 296° West 423 487 18,500 -2,520 Descending FlightAware ADS-B
05:07PM 29.5202 -93.9906 287° West 423 487 18,100 -2,340 Descending FlightAware ADS-B
05:07PM 29.5223 -94.0098 277° West 422 486 17,800 -2,220 Descending FlightAware ADS-B
05:07PM 29.5243 -94.0764 272° West 415 478 16,700 -2,280 Descending FlightAware ADS-B
05:08PM 29.5271 -94.1435 273° West 404 465 15,500 -2,220 Descending FlightAware ADS-B
05:08PM 29.5291 -94.2075 272° West 397 457 14,500 -1,980 Descending FlightAware ADS-B
05:09PM 29.5309 -94.2717 272° West 392 451 13,500 -1,740 Descending FlightAware ADS-B
05:09PM 29.5324 -94.3164 272° West 382 440 13,000 -1,260 Descending FlightAware ADS-B
05:09PM 29.5337 -94.3295 277° West 374 430 12,900 -480 Descending FlightAware ADS-B
05:09PM 29.5366 -94.3446 282° West 366 421 12,900  Level FlightAware ADS-B
05:09PM 29.5412 -94.3611 288° West 362 417 12,900  Level FlightAware ADS-B
05:10PM 29.5456 -94.3736 292° West 361 415 12,900  Level FlightAware ADS-B
05:10PM 29.5677 -94.4251 296° West 358 412 12,900 -120 Level FlightAware ADS-B
05:11PM 29.5892 -94.4752 296° West 355 409 12,800 -780 Descending FlightAware ADS-B
05:11PM 29.6075 -94.5184 296° West 354 407 12,200 -1,200 Descending FlightAware ADS-B
05:11PM 29.6147 -94.5368 294° West 354 407 12,100 -900 Descending FlightAware ADS-B
05:11PM 29.6221 -94.5521 299° West 354 407 11,900 -840 Descending FlightAware ADS-B
05:12PM 29.6563 -94.6044 308° West 353 406 11,500 -840 Descending FlightAware ADS-B
05:12PM 29.6876 -94.6492 309° West 346 398 11,000 -1,080 Descending FlightAware ADS-B
05:13PM 29.7121 -94.6847 308° West 346 398 10,500 -1,140 Descending FlightAware ADS-B
05:13PM 29.7187 -94.6956 305° West 346 398 10,400 -840 Descending FlightAware ADS-B
05:14PM 29.7420 -94.7599 289° West 337 388 9,900 -720 Descending FlightAware ADS-B
05:14PM 29.7494 -94.7851 289° West 327 376 9,800 -600 Descending FlightAware ADS-B
05:14PM 29.7563 -94.8090 288° West 319 367 9,600 -600 Descending FlightAware ADS-B
05:14PM 29.7587 -94.8185 286° West 317 365 9,600 -600 Level FlightAware ADS-B
05:14PM 29.7640 -94.8413 285° West 313 360 9,400 -840 Descending FlightAware ADS-B
05:15PM 29.7746 -94.8791 288° West 309 356 9,100 -960 Descending FlightAware ADS-B
05:15PM 29.7815 -94.9028 289° West 308 354 8,800 -1,200 Descending FlightAware ADS-B
05:15PM 29.7884 -94.9265 289° West 308 354 8,500 -1,320 Descending FlightAware ADS-B
05:16PM 29.8047 -94.9796 292° West 310 357 7,700 -1,500 Descending FlightAware ADS-B
05:16PM 29.8130 -95.0015 294° West 308 354 7,300 -1,200 Descending FlightAware ADS-B
05:16PM 29.8222 -95.0238 295° West 302 348 7,100 -1,080 Descending FlightAware ADS-B
05:17PM 29.8404 -95.0670 296° West 295 339 6,500 -1,380 Descending FlightAware ADS-B
05:17PM 29.8493 -95.0881 296° West 296 341 6,100 -600 Descending FlightAware ADS-B
05:18PM 29.8763 -95.1528 296° West 296 341 5,900 -240 Descending FlightAware ADS-B
05:18PM 29.8854 -95.1746 296° West 295 339 5,900  Level FlightAware ADS-B
05:18PM 29.8888 -95.1839 293° West 296 341 5,900  Level FlightAware ADS-B
05:19PM 29.8947 -95.2220 278° West 298 343 5,900  Level FlightAware ADS-B
05:19PM 29.8971 -95.2397 279° West 297 342 5,900  Level FlightAware ADS-B
05:19PM 29.9002 -95.2681 277° West 297 342 5,900  Level FlightAware ADS-B
05:20PM 29.9079 -95.3684 277° West 298 343 5,900  Level FlightAware ADS-B
05:20PM 29.9109 -95.3920 278° West 299 344 5,900  Level FlightAware ADS-B
05:21PM 29.9128 -95.4132 276° West 300 345 5,900  Level FlightAware ADS-B
05:21PM 29.9131 -95.4192 273° West 299 344 5,900  Level FlightAware ADS-B
05:21PM 29.9145 -95.4443 274° West 286 329 5,900  Level FlightAware ADS-B
05:21PM 29.9158 -95.4667 274° West 270 311 5,900 -240 Level FlightAware ADS-B
05:22PM 29.9167 -95.4868 273° West 258 297 5,800 -1,080 Descending FlightAware ADS-B
05:22PM 29.9183 -95.5131 277° West 253 291 5,300 -1,740 Descending FlightAware ADS-B
05:22PM 29.9219 -95.5241 298° West 247 284 5,000 -1,500 Descending FlightAware ADS-B
05:22PM 29.9239 -95.5276 303° West 248 285 5,000 -1,020 Level FlightAware ADS-B
05:22PM 29.9263 -95.5307 312° West 241 277 4,900 -1,740 Descending FlightAware ADS-B
05:22PM 29.9296 -95.5336 323° Northwest 236 272 4,800 -1,140 Descending FlightAware ADS-B
05:22PM 29.9365 -95.5374 340° North 224 258 4,700 -1,440 Descending FlightAware ADS-B
05:23PM 29.9529 -95.5347 23° Northeast 206 237 4,200 -1,620 Descending FlightAware ADS-B
05:23PM 29.9563 -95.5313 41° Northeast 202 232 4,100 -1,680 Descending FlightAware ADS-B
05:23PM 29.9621 -95.5204 62° Northeast 191 220 3,700 -1,740 Descending FlightAware ADS-B
05:23PM 29.9751 -95.4911 63° Northeast 188 216 2,800 -1,680 Descending FlightAware ADS-B
05:23PM 29.9764 -95.4866 72° East 184 212 2,700 -1,680 Descending FlightAware ADS-B
05:24PM 29.9772 -95.4801 82° East 186 214 2,500 -1,440 Descending FlightAware ADS-B
05:24PM 29.9773 -95.4741 89° East 181 208 2,400 -1,020 Descending FlightAware ADS-B
05:24PM 29.9775 -95.4322 90° East 176 203 1,600 -1,020 Descending FlightAware ADS-B
05:25PM 29.9775 -95.4249 90° East 147 169 1,500 -840 Descending FlightAware ADS-B
05:25PM 29.9776 -95.4044 89° East 143 165 1,100 -840 Descending FlightAware ADS-B
05:25PM 29.9776 -95.3919 90° East 145 167 900 -600 Descending FlightAware ADS-B
05:25PM 29.9776 -95.3886 90° East 145 167 900 -720 Level FlightAware ADS-B
05:26PM 29.9776 -95.3789 90° East 146 168 700 -780 Descending FlightAware ADS-B
05:26PM 29.9776 -95.3693 90° East 148 170 600 -660 Descending FlightAware ADS-B
05:26PM 29.9777 -95.3565 89° East 150 173 400 -780 Descending FlightAware ADS-B
05:27PM 29.9776 -95.3370 90° East 149 171 100 -780 Descending FlightAware ADS-B
05:27PM 29.9776 -95.3216 90° East 110 127 -300 Descending FlightAware ADS-B